Time;durP1;ratioP1;P1;durP2;ratioP2;P2;SDS_P1;SDS_P2;PMS_P1;PMS_P2;Temp;Humidity;BMP_temperature;BMP_pressure;BME280_temperature;BME280_humidity;BME280_pressure;Samples;Min_cycle;Max_cycle;Signal;HPM_P1;HPM_P2
2023/06/23 00:01:17;;;;;;;1167.70;999.90;;;16.10;99.90;;;;;;5093500;28;21008;-65
2023/06/23 00:03:45;;;;;;;1171.73;999.90;;;16.10;99.90;;;;;;5094057;28;20446;-65
2023/06/23 00:06:12;;;;;;;1170.27;999.90;;;16.10;99.90;;;;;;5094904;28;20445;-66
2023/06/23 00:08:40;;;;;;;1166.90;999.90;;;16.10;99.90;;;;;;5093663;28;20476;-65
2023/06/23 00:11:07;;;;;;;1160.87;999.90;;;16.10;99.90;;;;;;5093337;28;20457;-65
2023/06/23 00:13:34;;;;;;;1142.83;999.90;;;16.10;99.90;;;;;;5093676;28;20959;-66
2023/06/23 00:16:04;;;;;;;1162.70;999.90;;;16.10;99.90;;;;;;5094502;28;20549;-65
2023/06/23 00:18:31;;;;;;;1160.87;999.90;;;16.10;99.90;;;;;;5093941;28;20804;-65
2023/06/23 00:20:58;;;;;;;1148.17;999.90;;;16.10;99.90;;;;;;5093261;28;20875;-66
2023/06/23 00:23:24;;;;;;;1138.63;999.90;;;16.10;99.90;;;;;;5093597;28;20450;-66
2023/06/23 00:25:53;;;;;;;1150.73;999.90;;;16.10;99.90;;;;;;5094654;28;20450;-66
2023/06/23 00:28:20;;;;;;;1161.27;999.90;;;16.10;99.90;;;;;;5093616;28;20489;-66
2023/06/23 00:30:47;;;;;;;1114.60;995.20;;;16.10;99.90;;;;;;5093203;28;20457;-66
2023/06/23 00:33:14;;;;;;;1106.73;987.53;;;16.10;99.90;;;;;;5093414;28;20921;-66
2023/06/23 00:35:41;;;;;;;1103.73;984.63;;;16.10;99.90;;;;;;5094162;28;20454;-66
2023/06/23 00:38:08;;;;;;;1093.17;974.20;;;16.10;99.90;;;;;;5093642;28;20456;-66
2023/06/23 00:40:36;;;;;;;1113.03;993.17;;;16.10;99.90;;;;;;5092975;28;20479;-66
2023/06/23 00:43:04;;;;;;;1089.93;970.33;;;16.10;99.90;;;;;;5093162;28;20461;-66
2023/06/23 00:45:31;;;;;;;1065.00;946.07;;;16.00;99.90;;;;;;5094328;28;20460;-66
2023/06/23 00:47:58;;;;;;;1073.13;954.13;;;16.10;99.90;;;;;;5093790;28;20544;-66
2023/06/23 00:50:26;;;;;;;1064.50;945.50;;;16.10;99.90;;;;;;5092429;28;20470;-66
2023/06/23 00:52:54;;;;;;;1057.67;931.37;;;16.10;99.90;;;;;;5092702;28;20450;-66
2023/06/23 00:55:22;;;;;;;1052.07;930.30;;;16.00;99.90;;;;;;5094145;28;20618;-66
2023/06/23 00:57:51;;;;;;;1049.00;932.60;;;16.00;99.90;;;;;;5092996;28;20881;-66
2023/06/23 01:00:20;;;;;;;1043.80;915.10;;;16.00;99.90;;;;;;5092091;28;20456;-66
2023/06/23 01:02:49;;;;;;;1046.97;931.27;;;16.00;99.90;;;;;;5091699;28;20538;-66
2023/06/23 01:05:16;;;;;;;1036.40;921.37;;;16.00;99.90;;;;;;5093987;28;20783;-66
2023/06/23 01:07:50;;;;;;;1039.03;923.67;;;16.00;99.90;;;;;;5093664;28;20449;-66
2023/06/23 01:10:25;;;;;;;1038.07;922.97;;;16.00;99.90;;;;;;5092157;28;20549;-66
2023/06/23 01:13:00;;;;;;;1033.53;919.20;;;16.00;99.90;;;;;;5092393;28;20511;-66
2023/06/23 01:15:33;;;;;;;1040.80;926.30;;;16.00;99.90;;;;;;5093966;28;20846;-66
2023/06/23 01:18:08;;;;;;;1032.97;919.17;;;16.00;99.90;;;;;;5093203;28;20445;-66
2023/06/23 01:20:41;;;;;;;1033.23;919.53;;;15.90;99.90;;;;;;5092082;28;20449;-67
2023/06/23 01:23:45;;;;;;;1027.67;914.47;;;15.90;99.90;;;;;;5092797;28;20882;-66
2023/06/23 01:26:35;;;;;;;1035.07;921.97;;;15.90;99.90;;;;;;5093810;28;20451;-66
2023/06/23 01:29:07;;;;;;;1031.90;919.23;;;15.90;99.90;;;;;;5092685;28;20476;-67
2023/06/23 01:31:43;;;;;;;1033.00;920.50;;;15.90;99.90;;;;;;5092358;28;20454;-66
2023/06/23 01:34:17;;;;;;;1036.80;924.70;;;15.90;99.90;;;;;;5095884;28;20463;-67
2023/06/23 01:36:49;;;;;;;1034.40;921.50;;;15.80;99.90;;;;;;5097610;28;20444;-67
2023/06/23 01:39:20;;;;;;;1031.53;919.83;;;15.80;99.90;;;;;;5096189;28;20485;-66
2023/06/23 01:41:53;;;;;;;1045.83;933.77;;;15.80;99.90;;;;;;5096234;28;20454;-67
2023/06/23 01:44:24;;;;;;;1042.83;931.03;;;15.80;99.90;;;;;;5097458;28;20525;-67
2023/06/23 01:46:54;;;;;;;1048.90;937.53;;;15.80;99.90;;;;;;5097407;28;20446;-67
2023/06/23 01:49:27;;;;;;;1045.83;934.80;;;15.90;99.90;;;;;;5095988;28;20934;-66
2023/06/23 01:51:55;;;;;;;1047.33;936.03;;;15.90;99.90;;;;;;5096301;28;20450;-67
2023/06/23 01:54:24;;;;;;;1051.70;940.60;;;15.90;99.90;;;;;;5096875;28;20457;-66
2023/06/23 01:56:52;;;;;;;1052.07;940.50;;;15.90;99.90;;;;;;5097496;28;20453;-67
2023/06/23 01:59:22;;;;;;;1050.20;938.10;;;15.90;99.90;;;;;;5095893;28;20456;-66
2023/06/23 02:01:51;;;;;;;1052.57;941.60;;;15.90;99.90;;;;;;5095746;28;20449;-67
2023/06/23 02:04:19;;;;;;;1048.70;938.20;;;15.90;99.90;;;;;;5096955;28;20524;-67
2023/06/23 02:06:48;;;;;;;1048.23;937.10;;;15.90;99.90;;;;;;5097016;28;20941;-67
2023/06/23 02:09:18;;;;;;;1043.57;932.50;;;15.90;99.90;;;;;;5096044;28;20509;-66
2023/06/23 02:11:46;;;;;;;1036.33;925.83;;;15.90;99.90;;;;;;5095692;28;20823;-67
2023/06/23 02:14:16;;;;;;;1035.97;925.53;;;15.90;99.90;;;;;;5096266;28;20536;-67
2023/06/23 02:16:45;;;;;;;1045.47;934.97;;;15.90;99.90;;;;;;5096782;28;20458;-67
2023/06/23 02:19:13;;;;;;;1046.50;935.67;;;15.90;99.90;;;;;;5098667;28;20463;-67
2023/06/23 02:21:42;;;;;;;1037.03;926.87;;;15.90;99.90;;;;;;5107433;28;20455;-67
2023/06/23 02:24:10;;;;;;;1044.73;934.53;;;15.90;99.90;;;;;;5116598;28;20449;-67
2023/06/23 02:26:40;;;;;;;1038.57;929.10;;;15.90;99.90;;;;;;5117010;28;20453;-67
2023/06/23 02:29:08;;;;;;;1046.87;937.87;;;15.90;99.90;;;;;;5115758;28;20456;-67
2023/06/23 02:31:36;;;;;;;1040.53;931.47;;;15.90;99.90;;;;;;5115856;28;20453;-67
2023/06/23 02:34:04;;;;;;;1043.93;935.10;;;15.90;99.90;;;;;;5116346;28;20540;-67
2023/06/23 02:36:37;;;;;;;1037.90;929.10;;;15.90;99.90;;;;;;5116831;28;20449;-67
2023/06/23 02:39:06;;;;;;;1035.43;926.53;;;15.90;99.90;;;;;;5116067;28;20433;-66
2023/06/23 02:41:36;;;;;;;1037.37;929.07;;;15.90;99.90;;;;;;5115844;28;20449;-67
2023/06/23 02:44:10;;;;;;;1034.00;925.60;;;15.90;99.90;;;;;;5115528;28;20452;-67
2023/06/23 02:46:39;;;;;;;1031.37;923.30;;;15.90;99.90;;;;;;5116619;28;20805;-67
2023/06/23 02:49:11;;;;;;;1030.97;922.03;;;16.00;99.90;;;;;;5115271;28;20461;-67
2023/06/23 02:51:40;;;;;;;1037.40;928.07;;;16.00;99.90;;;;;;5115283;28;20965;-67
2023/06/23 02:54:12;;;;;;;1039.67;930.27;;;16.00;99.90;;;;;;5115888;28;20514;-67
2023/06/23 02:56:43;;;;;;;1044.13;934.50;;;16.00;99.90;;;;;;5116801;28;20795;-67
2023/06/23 02:59:13;;;;;;;1046.93;937.23;;;16.00;99.90;;;;;;5115493;28;20499;-65
2023/06/23 03:01:44;;;;;;;1050.37;939.80;;;16.00;99.90;;;;;;5106153;28;20453;-67
2023/06/23 03:04:12;;;;;;;1042.70;932.87;;;16.00;99.90;;;;;;5095802;28;20454;-67
2023/06/23 03:06:40;;;;;;;1042.27;934.70;;;15.90;99.90;;;;;;5096936;28;20523;-67
2023/06/23 03:09:07;;;;;;;1037.70;930.00;;;16.00;99.90;;;;;;5094964;28;20477;-67
2023/06/23 03:11:34;;;;;;;1041.87;932.77;;;16.00;99.90;;;;;;5094608;28;20564;-67
2023/06/23 03:14:01;;;;;;;1048.37;939.77;;;16.00;99.90;;;;;;5095430;28;20941;-67
2023/06/23 03:16:33;;;;;;;1043.50;935.13;;;16.00;99.90;;;;;;5095930;28;20449;-67
2023/06/23 03:19:11;;;;;;;1047.23;938.70;;;16.00;99.90;;;;;;5094844;28;20799;-67
2023/06/23 03:21:40;;;;;;;1057.50;949.03;;;16.00;99.90;;;;;;5094326;28;20449;-67
2023/06/23 03:24:09;;;;;;;1044.13;936.57;;;16.10;99.90;;;;;;5095316;28;20456;-67
2023/06/23 03:26:41;;;;;;;1059.23;951.87;;;16.00;99.90;;;;;;5095666;28;20489;-67
2023/06/23 03:29:09;;;;;;;1062.03;955.53;;;16.10;99.90;;;;;;5094622;28;20796;-67
2023/06/23 03:31:41;;;;;;;1048.60;942.77;;;16.10;99.90;;;;;;5093925;28;20478;-69
2023/06/23 03:34:09;;;;;;;1060.10;954.30;;;16.10;99.90;;;;;;5095384;28;20434;-67
2023/06/23 03:36:41;;;;;;;1059.20;953.90;;;16.00;99.90;;;;;;5095656;28;20936;-67
2023/06/23 03:39:14;;;;;;;1059.50;954.73;;;16.00;99.90;;;;;;5094571;28;20490;-67
2023/06/23 03:41:42;;;;;;;1045.03;940.90;;;16.00;99.90;;;;;;5093928;28;20486;-68
2023/06/23 03:44:15;;;;;;;1064.87;960.87;;;16.00;99.90;;;;;;5094602;28;20468;-67
2023/06/23 03:46:47;;;;;;;1064.60;960.50;;;16.00;99.90;;;;;;5095125;28;20530;-68
2023/06/23 03:49:16;;;;;;;1064.57;961.20;;;16.00;99.90;;;;;;5093971;28;20466;-67
2023/06/23 03:51:47;;;;;;;1074.27;972.40;;;16.00;99.90;;;;;;5093681;28;20486;-67
2023/06/23 03:54:16;;;;;;;1053.70;952.97;;;15.90;99.90;;;;;;5094426;28;20454;-67
2023/06/23 03:56:46;;;;;;;1057.37;957.57;;;15.90;99.90;;;;;;5094846;28;20917;-69
2023/06/23 03:59:16;;;;;;;1048.53;948.93;;;15.80;99.90;;;;;;5093763;28;20456;-67
2023/06/23 04:01:44;;;;;;;1059.97;961.10;;;15.80;99.90;;;;;;5093670;28;20489;-67
2023/06/23 04:04:13;;;;;;;1050.33;952.83;;;15.70;99.90;;;;;;5094267;28;20503;-67
2023/06/23 04:06:41;;;;;;;1057.70;960.17;;;15.70;99.90;;;;;;5094665;28;20532;-67
2023/06/23 04:09:12;;;;;;;1066.33;969.47;;;15.70;99.90;;;;;;5093547;28;20699;-67
2023/06/23 04:11:40;;;;;;;1050.50;955.33;;;15.70;99.90;;;;;;5093324;28;20996;-67
2023/06/23 04:14:09;;;;;;;1040.10;944.83;;;15.80;99.90;;;;;;5094145;28;20556;-67
2023/06/23 04:16:40;;;;;;;1061.57;966.50;;;15.80;99.90;;;;;;5094790;28;20480;-67
2023/06/23 04:19:08;;;;;;;1054.83;959.07;;;15.80;99.90;;;;;;5093486;28;20445;-67
2023/06/23 04:21:37;;;;;;;1041.07;946.37;;;15.80;99.90;;;;;;5093491;28;20445;-67
2023/06/23 04:24:08;;;;;;;1062.70;968.40;;;15.70;99.90;;;;;;5094147;28;20453;-67
2023/06/23 04:26:37;;;;;;;1049.80;955.80;;;15.80;99.90;;;;;;5095741;28;20454;-67
2023/06/23 04:29:07;;;;;;;1050.80;958.00;;;15.70;99.90;;;;;;5093162;28;20936;-68
2023/06/23 04:31:35;;;;;;;1048.83;956.67;;;15.80;99.90;;;;;;5092891;28;20470;-68
2023/06/23 04:34:02;;;;;;;1052.60;960.17;;;15.80;99.90;;;;;;5093591;28;20545;-67
2023/06/23 04:36:40;;;;;;;1049.70;959.43;;;16.00;99.90;;;;;;5094165;28;20453;-68
2023/06/23 04:39:15;;;;;;;1071.07;979.13;;;16.10;99.90;;;;;;5093336;28;20939;-68
2023/06/23 04:41:47;;;;;;;1063.67;975.60;;;16.10;99.90;;;;;;5092934;28;20449;-68
2023/06/23 04:44:16;;;;;;;1044.67;955.03;;;16.20;99.90;;;;;;5094115;28;20801;-67
2023/06/23 04:46:45;;;;;;;1048.10;962.40;;;16.20;99.90;;;;;;5094310;28;20490;-68
2023/06/23 04:49:17;;;;;;;1043.40;963.50;;;16.20;99.90;;;;;;5093064;28;20506;-68
2023/06/23 04:51:47;;;;;;;1043.63;966.50;;;16.30;99.90;;;;;;5092719;28;20478;-67
2023/06/23 04:54:20;;;;;;;1017.47;946.27;;;16.30;99.90;;;;;;5093479;28;20552;-68
2023/06/23 04:56:51;;;;;;;1015.43;948.47;;;16.30;99.90;;;;;;5093887;28;20445;-68
2023/06/23 04:59:22;;;;;;;974.77;914.10;;;16.50;99.90;;;;;;5093028;28;20882;-68
2023/06/23 05:01:50;;;;;;;849.53;799.40;;;16.50;99.90;;;;;;5092363;28;20958;-68
2023/06/23 05:04:18;;;;;;;787.97;741.33;;;16.70;99.90;;;;;;5093690;28;20885;-68
2023/06/23 05:06:47;;;;;;;737.60;695.30;;;16.70;99.90;;;;;;5093714;28;20967;-67
2023/06/23 05:09:16;;;;;;;715.93;675.60;;;16.70;99.90;;;;;;5091877;28;20493;-67
2023/06/23 05:11:45;;;;;;;709.90;669.37;;;16.70;99.90;;;;;;5092564;28;20568;-68
2023/06/23 05:14:16;;;;;;;626.90;592.50;;;16.80;99.90;;;;;;5093208;28;21007;-68
2023/06/23 05:16:44;;;;;;;629.63;595.03;;;16.70;99.90;;;;;;5094008;28;20495;-67
2023/06/23 05:19:12;;;;;;;484.63;458.60;;;16.70;99.90;;;;;;5092794;28;20541;-67
2023/06/23 05:21:41;;;;;;;478.73;453.33;;;16.90;99.90;;;;;;5092339;28;20944;-68
2023/06/23 05:24:10;;;;;;;500.90;474.60;;;16.90;99.90;;;;;;5093007;28;21008;-67
2023/06/23 05:26:41;;;;;;;508.87;481.93;;;16.90;99.90;;;;;;5093521;28;20454;-67
2023/06/23 05:29:10;;;;;;;479.43;453.97;;;16.90;99.90;;;;;;5092836;28;20457;-67
2023/06/23 05:31:42;;;;;;;478.90;453.90;;;16.90;99.90;;;;;;5092127;28;20477;-67
2023/06/23 05:34:13;;;;;;;480.10;455.47;;;16.90;99.90;;;;;;5092884;28;20486;-67
2023/06/23 05:36:42;;;;;;;449.67;426.47;;;17.00;99.90;;;;;;5093777;28;20438;-67
2023/06/23 05:39:15;;;;;;;435.87;413.57;;;17.00;99.90;;;;;;5092612;28;20504;-68
2023/06/23 05:41:42;;;;;;;468.83;444.33;;;17.00;99.90;;;;;;5092417;28;20450;-68
2023/06/23 05:44:10;;;;;;;429.17;406.47;;;16.90;99.90;;;;;;5092849;28;20480;-67
2023/06/23 05:46:42;;;;;;;456.30;432.40;;;16.80;99.90;;;;;;5093343;28;20458;-67
2023/06/23 05:49:14;;;;;;;475.07;450.17;;;16.80;99.90;;;;;;5091867;28;20464;-68
2023/06/23 05:51:42;;;;;;;467.67;442.97;;;16.70;99.90;;;;;;5092155;28;20477;-68
2023/06/23 05:54:12;;;;;;;444.87;421.50;;;16.80;99.90;;;;;;5093115;28;20536;-67
2023/06/23 05:56:43;;;;;;;398.80;377.50;;;16.90;99.90;;;;;;5093541;28;20458;-65
2023/06/23 05:59:20;;;;;;;398.50;377.20;;;16.90;99.90;;;;;;5091110;28;20517;-65
2023/06/23 06:01:51;;;;;;;373.57;352.37;;;17.00;99.90;;;;;;5091710;28;20467;-65
2023/06/23 06:04:20;;;;;;;342.53;322.33;;;17.00;99.90;;;;;;5092523;28;20435;-65
2023/06/23 06:06:48;;;;;;;331.90;311.80;;;17.10;99.90;;;;;;5093481;28;20475;-65
2023/06/23 06:09:17;;;;;;;307.77;288.20;;;17.30;99.90;;;;;;5091912;28;20450;-65
2023/06/23 06:11:45;;;;;;;303.20;283.20;;;17.30;99.90;;;;;;5091746;28;20488;-66
2023/06/23 06:14:15;;;;;;;270.40;251.43;;;17.50;99.90;;;;;;5092614;28;20475;-66
2023/06/23 06:16:43;;;;;;;263.30;244.60;;;17.70;99.90;;;;;;5093058;28;20450;-68
2023/06/23 06:19:14;;;;;;;297.60;277.47;;;17.90;99.90;;;;;;5093070;28;20528;-66
2023/06/23 06:21:43;;;;;;;321.60;300.47;;;18.20;99.90;;;;;;5095065;28;20525;-65
2023/06/23 06:24:15;;;;;;;319.73;298.93;;;18.60;99.90;;;;;;5096194;28;20450;-65
2023/06/23 06:26:43;;;;;;;328.40;306.83;;;18.70;99.90;;;;;;5096975;28;20442;-65
2023/06/23 06:29:12;;;;;;;357.13;333.07;;;18.80;99.90;;;;;;5095722;28;20489;-65
2023/06/23 06:31:40;;;;;;;363.20;339.57;;;18.90;99.90;;;;;;5095135;28;20475;-66
2023/06/23 06:34:08;;;;;;;370.00;345.90;;;19.00;99.90;;;;;;5096006;28;20449;-65
2023/06/23 06:36:38;;;;;;;373.83;349.93;;;19.20;99.90;;;;;;5096422;28;21004;-66
2023/06/23 06:39:06;;;;;;;380.70;356.80;;;19.20;99.90;;;;;;5095603;28;20458;-66
2023/06/23 06:41:35;;;;;;;391.57;368.63;;;19.10;99.90;;;;;;5095337;28;20488;-65
2023/06/23 06:44:03;;;;;;;395.57;374.23;;;19.20;99.90;;;;;;5096112;28;20449;-66
2023/06/23 06:46:30;;;;;;;387.40;367.70;;;19.50;99.90;;;;;;5096271;28;20466;-66
2023/06/23 06:48:58;;;;;;;376.57;358.23;;;19.50;99.90;;;;;;5095097;28;20471;-66
2023/06/23 06:51:27;;;;;;;342.87;326.53;;;19.90;99.90;;;;;;5095153;28;20470;-66
2023/06/23 06:53:56;;;;;;;321.40;306.60;;;19.80;99.90;;;;;;5095745;28;20449;-66
2023/06/23 06:56:24;;;;;;;304.63;291.07;;;19.80;99.90;;;;;;5096417;28;20455;-66
2023/06/23 06:58:51;;;;;;;291.87;279.47;;;19.50;99.90;;;;;;5095190;28;20450;-65
2023/06/23 07:01:18;;;;;;;276.10;264.63;;;19.40;99.90;;;;;;5092496;28;20456;-66
2023/06/23 07:03:46;;;;;;;260.80;250.30;;;19.50;99.90;;;;;;5094085;28;20456;-66
2023/06/23 07:06:14;;;;;;;236.80;227.30;;;19.60;99.90;;;;;;5095923;28;20968;-66
2023/06/23 07:08:42;;;;;;;217.97;209.07;;;19.50;99.90;;;;;;5094100;28;20450;-66
2023/06/23 07:11:10;;;;;;;202.57;194.93;;;19.10;99.90;;;;;;5093585;28;21004;-66
2023/06/23 07:13:40;;;;;;;182.40;175.63;;;19.30;99.90;;;;;;5094040;28;20465;-66
2023/06/23 07:16:07;;;;;;;168.03;161.73;;;19.60;99.90;;;;;;5096062;28;20993;-67
2023/06/23 07:18:33;;;;;;;160.73;154.63;;;19.80;99.90;;;;;;5094526;28;20457;-66
2023/06/23 07:21:03;;;;;;;153.33;147.50;;;20.00;99.90;;;;;;5093296;28;20460;-66
2023/06/23 07:23:30;;;;;;;149.00;143.40;;;20.30;99.90;;;;;;5094043;28;20826;-66
2023/06/23 07:25:57;;;;;;;138.30;132.80;;;20.10;99.90;;;;;;5095545;28;20541;-66
2023/06/23 07:28:25;;;;;;;126.40;121.80;;;20.40;99.90;;;;;;5094453;28;20825;-66
2023/06/23 07:30:52;;;;;;;120.30;115.90;;;20.60;99.90;;;;;;5092583;28;20449;-66
2023/06/23 07:33:19;;;;;;;108.50;104.60;;;20.70;99.90;;;;;;5093687;28;20881;-66
2023/06/23 07:35:46;;;;;;;105.40;101.60;;;20.80;99.00;;;;;;5095315;28;20450;-66
2023/06/23 07:38:13;;;;;;;99.57;96.00;;;21.10;98.90;;;;;;5094814;28;20611;-65
2023/06/23 07:40:43;;;;;;;85.60;82.40;;;21.30;99.80;;;;;;5093301;28;20461;-66
2023/06/23 07:43:10;;;;;;;66.93;64.43;;;21.50;98.50;;;;;;5093686;28;20449;-66
2023/06/23 07:45:38;;;;;;;57.03;54.83;;;21.70;95.80;;;;;;5095147;28;20458;-66
2023/06/23 07:48:06;;;;;;;41.20;39.60;;;21.50;97.00;;;;;;5094097;28;20462;-66
2023/06/23 07:50:33;;;;;;;30.53;29.30;;;21.30;96.90;;;;;;5092705;28;20802;-66
2023/06/23 07:52:59;;;;;;;26.60;25.40;;;21.40;96.20;;;;;;5093028;28;20489;-66
2023/06/23 07:55:26;;;;;;;22.03;21.03;;;21.50;95.70;;;;;;5094973;28;20457;-66
2023/06/23 07:57:53;;;;;;;17.70;16.90;;;21.40;96.40;;;;;;5094473;28;20784;-66
2023/06/23 08:00:21;;;;;;;16.37;15.57;;;21.90;95.50;;;;;;5092240;28;20449;-66
2023/06/23 08:02:49;;;;;;;13.90;13.20;;;21.60;95.80;;;;;;5092379;28;20529;-66
2023/06/23 08:05:16;;;;;;;13.70;13.00;;;21.60;95.80;;;;;;5095088;28;20541;-66
2023/06/23 08:07:44;;;;;;;13.10;12.40;;;22.20;95.90;;;;;;5094538;28;20529;-66
2023/06/23 08:10:11;;;;;;;14.23;13.13;;;22.60;94.70;;;;;;5091606;28;20449;-68
2023/06/23 08:12:38;;;;;;;11.83;11.03;;;22.80;91.60;;;;;;5092271;28;20470;-67
2023/06/23 08:15:06;;;;;;;10.03;9.43;;;22.90;88.80;;;;;;5094554;28;20552;-67
2023/06/23 08:17:33;;;;;;;9.20;8.70;;;23.00;88.80;;;;;;5094440;28;20461;-67
2023/06/23 08:20:05;;;;;;;8.60;8.10;;;22.80;91.10;;;;;;5093202;28;20450;-69
2023/06/23 08:22:32;;;;;;;8.43;7.93;;;23.20;89.80;;;;;;5093232;28;20945;-67
2023/06/23 08:24:58;;;;;;;8.80;8.30;;;22.80;88.00;;;;;;5094653;28;20507;-68
2023/06/23 08:27:25;;;;;;;8.10;7.60;;;23.50;84.80;;;;;;5093506;28;20462;-66
2023/06/23 08:29:52;;;;;;;8.93;8.33;;;23.70;88.20;;;;;;5093221;28;20457;-67
2023/06/23 08:32:19;;;;;;;8.40;7.80;;;23.80;81.60;;;;;;5093571;28;20469;-67
2023/06/23 08:34:49;;;;;;;8.90;8.30;;;23.80;84.40;;;;;;5094406;28;20955;-67
2023/06/23 08:37:18;;;;;;;8.97;8.37;;;24.10;83.00;;;;;;5092544;28;20450;-66
2023/06/23 08:39:45;;;;;;;8.00;7.50;;;24.60;75.60;;;;;;5093075;28;20454;-68
2023/06/23 08:42:13;;;;;;;8.53;8.03;;;24.00;77.40;;;;;;5092295;28;20503;-67
2023/06/23 08:44:43;;;;;;;7.47;6.97;;;24.20;82.00;;;;;;5093964;28;20449;-67
2023/06/23 08:47:12;;;;;;;6.93;6.43;;;24.60;74.30;;;;;;5094075;28;20454;-67
2023/06/23 08:49:41;;;;;;;5.90;5.40;;;25.20;67.80;;;;;;5093009;28;20462;-68
2023/06/23 08:52:11;;;;;;;6.57;6.07;;;24.70;74.40;;;;;;5092614;28;20474;-68
2023/06/23 08:54:40;;;;;;;5.77;5.27;;;24.10;70.40;;;;;;5093686;28;20450;-67
2023/06/23 08:57:07;;;;;;;5.63;5.13;;;24.20;73.90;;;;;;5093894;28;20456;-68
2023/06/23 08:59:34;;;;;;;5.53;5.03;;;24.70;72.80;;;;;;5092923;28;20553;-68
2023/06/23 09:02:01;;;;;;;4.90;4.50;;;23.80;73.60;;;;;;5092625;28;20941;-68
2023/06/23 09:04:28;;;;;;;4.70;4.30;;;24.00;75.00;;;;;;5093437;28;20955;-68
2023/06/23 09:06:55;;;;;;;4.20;3.70;;;24.00;73.70;;;;;;5094074;28;20480;-68
2023/06/23 09:09:22;;;;;;;4.87;4.47;;;24.00;73.70;;;;;;5092490;28;20454;-68
2023/06/23 09:11:51;;;;;;;4.30;3.87;;;23.40;71.80;;;;;;5092715;28;20476;-68
2023/06/23 09:14:19;;;;;;;4.97;4.13;;;23.50;72.00;;;;;;5093606;28;20875;-67
2023/06/23 09:16:46;;;;;;;4.40;3.60;;;23.80;71.30;;;;;;5094542;28;20480;-67
2023/06/23 09:19:13;;;;;;;4.40;4.00;;;23.70;71.30;;;;;;5092779;28;20450;-67
2023/06/23 09:21:42;;;;;;;4.90;4.40;;;23.30;73.10;;;;;;5092563;28;20454;-67
2023/06/23 09:24:09;;;;;;;4.60;3.97;;;24.00;71.70;;;;;;5093455;28;20449;-67
2023/06/23 09:26:45;;;;;;;4.53;4.10;;;24.00;71.50;;;;;;5093913;28;20456;-67
2023/06/23 09:29:19;;;;;;;4.73;4.23;;;24.00;68.40;;;;;;5092444;28;20453;-67
2023/06/23 09:31:47;;;;;;;4.40;4.00;;;24.50;66.80;;;;;;5092264;28;20473;-67
2023/06/23 09:34:22;;;;;;;4.63;4.20;;;25.30;65.20;;;;;;5093090;28;20456;-67
2023/06/23 09:36:50;;;;;;;4.40;4.00;;;24.90;62.50;;;;;;5093776;28;20449;-67
2023/06/23 09:39:17;;;;;;;4.53;4.10;;;25.70;60.30;;;;;;5092665;28;20492;-67
2023/06/23 09:41:53;;;;;;;4.27;3.70;;;25.70;58.40;;;;;;5092327;28;20481;-67
2023/06/23 09:44:21;;;;;;;4.40;3.80;;;25.00;57.90;;;;;;5093015;28;20459;-67
2023/06/23 09:46:59;;;;;;;4.47;4.00;;;24.30;62.80;;;;;;5093418;28;20488;-68
2023/06/23 09:49:26;;;;;;;4.30;3.80;;;24.50;61.10;;;;;;5092132;28;20463;-67
2023/06/23 09:51:53;;;;;;;4.73;4.23;;;24.90;57.80;;;;;;5092181;28;20840;-67
2023/06/23 09:54:32;;;;;;;4.30;3.70;;;25.80;62.20;;;;;;5094331;28;20454;-61
2023/06/23 09:57:03;;;;;;;5.03;3.93;;;26.00;54.90;;;;;;5097377;28;20439;-62
2023/06/23 09:59:32;;;;;;;5.20;4.70;;;26.20;51.40;;;;;;5096323;28;20453;-62
2023/06/23 10:01:59;;;;;;;4.10;2.80;;;26.10;49.10;;;;;;5095935;28;20454;-62
2023/06/23 10:04:29;;;;;;;4.20;3.20;;;25.70;55.90;;;;;;5096836;28;20459;-62
2023/06/23 10:06:56;;;;;;;4.50;3.30;;;25.80;49.60;;;;;;5097443;28;20458;-62
2023/06/23 10:09:24;;;;;;;4.10;2.80;;;26.90;46.20;;;;;;5095777;28;20453;-62
2023/06/23 10:11:52;;;;;;;4.20;3.40;;;26.70;41.20;;;;;;5095940;28;20475;-62
2023/06/23 10:14:20;;;;;;;4.10;2.90;;;26.60;41.10;;;;;;5096584;28;20452;-59
2023/06/23 10:16:53;;;;;;;4.10;2.80;;;26.00;40.70;;;;;;5097187;28;20482;-62
2023/06/23 10:19:20;;;;;;;5.60;2.93;;;26.00;40.70;;;;;;5096143;28;20473;-59
2023/06/23 10:21:48;;;;;;;4.20;2.83;;;26.50;41.00;;;;;;5095588;28;20452;-60
2023/06/23 10:24:19;;;;;;;4.07;2.40;;;26.60;41.10;;;;;;5096719;28;20526;-60
2023/06/23 10:26:47;;;;;;;3.90;2.10;;;26.80;32.00;;;;;;5097032;28;20919;-61
2023/06/23 10:29:14;;;;;;;3.90;1.90;;;26.30;32.10;;;;;;5095824;28;20552;-60
2023/06/23 10:31:42;;;;;;;4.40;2.33;;;25.90;31.30;;;;;;5095316;28;20456;-59
2023/06/23 10:34:12;;;;;;;3.90;1.50;;;26.30;38.60;;;;;;5096135;28;20540;-60
2023/06/23 10:36:42;;;;;;;4.20;2.00;;;26.80;33.40;;;;;;5096852;28;20535;-60
2023/06/23 10:39:11;;;;;;;3.80;1.50;;;26.20;28.80;;;;;;5095694;28;20460;-60
2023/06/23 10:41:40;;;;;;;4.30;2.23;;;26.40;31.60;;;;;;5095235;28;20454;-59
2023/06/23 10:44:09;;;;;;;10.40;5.83;;;26.70;26.70;;;;;;5095792;28;20461;-60
2023/06/23 10:46:37;;;;;;;12.67;6.80;;;26.30;20.60;;;;;;5096357;28;20452;-60
2023/06/23 10:49:07;;;;;;;9.70;5.83;;;26.50;24.10;;;;;;5095210;28;20491;-60
2023/06/23 10:51:36;;;;;;;9.90;6.70;;;27.10;23.00;;;;;;5095024;28;20456;-60
2023/06/23 10:54:07;;;;;;;11.80;6.70;;;27.70;23.20;;;;;;5095985;28;20446;-60
2023/06/23 10:56:35;;;;;;;10.93;6.35;;;26.80;19.30;;;;;;5095167;28;20508;-60
2023/06/23 10:59:20;;;;;;;8.13;4.90;;;26.60;24.20;;;;;;5094676;28;20202;-60
2023/06/23 11:02:09;;;;;;;8.73;4.80;;;26.80;19.50;;;;;;5095333;28;20464;-60
2023/06/23 11:04:38;;;;;;;8.87;4.70;;;26.60;18.10;;;;;;5095526;28;20511;-60
2023/06/23 11:07:08;;;;;;;10.03;4.93;;;26.90;15.20;;;;;;5095200;28;20457;-61
2023/06/23 11:09:45;;;;;;;10.50;4.77;;;27.00;14.90;;;;;;5095432;28;20458;-61
2023/06/23 11:12:32;;;;;;;8.33;5.40;;;26.90;15.40;;;;;;5095312;28;20477;-60
2023/06/23 11:15:12;;;;;;;8.33;5.03;;;26.70;12.50;;;;;;5096040;28;20461;-60
2023/06/23 11:17:44;;;;;;;7.57;4.87;;;27.70;14.90;;;;;;5095942;28;20440;-60
2023/06/23 11:20:12;;;;;;;8.60;4.57;;;27.40;11.60;;;;;;5094308;28;20457;-60
2023/06/23 11:22:53;;;;;;;8.27;4.10;;;27.90;9.70;;;;;;5094858;28;20533;-59
2023/06/23 11:25:24;;;;;;;8.23;3.90;;;27.60;9.40;;;;;;5095986;28;20440;-60
2023/06/23 11:28:24;;;;;;;7.30;4.77;;;27.20;9.40;;;;;;5095773;28;20442;-59
2023/06/23 11:30:53;;;;;;;7.37;4.80;;;27.50;9.50;;;;;;5094852;28;20446;-59
2023/06/23 11:33:26;;;;;;;8.30;4.97;;;28.00;5.90;;;;;;5095034;28;20478;-60
2023/06/23 11:35:54;;;;;;;7.03;4.40;;;27.80;5.80;;;;;;5095686;28;20376;-60
2023/06/23 11:38:22;;;;;;;7.97;3.53;;;27.90;9.40;;;;;;5095347;28;20454;-60
2023/06/23 11:40:51;;;;;;;6.97;4.07;;;27.80;4.20;;;;;;5094411;28;20453;-60
2023/06/23 11:43:20;;;;;;;7.50;3.77;;;28.00;1.00;;;;;;5094652;28;20457;-60
2023/06/23 11:45:50;;;;;;;7.73;3.90;;;28.60;1.70;;;;;;5095534;28;20497;-63
2023/06/23 11:48:17;;;;;;;7.70;4.33;;;28.00;2.60;;;;;;5094890;28;20465;-61
2023/06/23 11:50:44;;;;;;;7.23;4.07;;;27.80;1.80;;;;;;5094077;28;20820;-60
2023/06/23 11:53:11;;;;;;;7.83;4.93;;;27.70;1.00;;;;;;5094473;28;20588;-60
2023/06/23 11:55:39;;;;;;;8.07;4.23;;;28.20;3.90;;;;;;5095321;28;20454;-60
2023/06/23 11:58:07;;;;;;;6.10;3.60;;;29.10;1.10;;;;;;5094580;28;20644;-60
2023/06/23 12:00:34;;;;;;;6.90;3.60;;;29.30;1.00;;;;;;5094062;28;20484;-60
2023/06/23 12:03:00;;;;;;;10.47;4.20;;;28.90;1.00;;;;;;5094304;28;20452;-61
2023/06/23 12:05:28;;;;;;;6.63;4.00;;;28.50;1.00;;;;;;5094784;28;20452;-60
2023/06/23 12:07:55;;;;;;;8.80;4.67;;;28.40;1.00;;;;;;5094615;28;20450;-60
2023/06/23 12:10:24;;;;;;;8.03;4.10;;;29.20;1.00;;;;;;5093702;28;20452;-60
2023/06/23 12:12:56;;;;;;;8.70;4.50;;;28.70;1.00;;;;;;5093914;28;21187;-60
2023/06/23 12:15:23;;;;;;;6.87;3.53;;;28.50;1.00;;;;;;5094677;28;20929;-60
2023/06/23 12:17:50;;;;;;;7.47;3.70;;;28.60;1.00;;;;;;5094524;28;20465;-61
2023/06/23 12:20:19;;;;;;;8.43;4.50;;;29.10;1.00;;;;;;5093498;28;20959;-60
2023/06/23 12:22:50;;;;;;;7.83;3.30;;;29.60;1.00;;;;;;5093792;28;20540;-60
2023/06/23 12:25:19;;;;;;;6.80;3.70;;;29.10;1.00;;;;;;5094501;28;20438;-61
2023/06/23 12:27:55;;;;;;;8.30;3.87;;;28.50;1.00;;;;;;5094277;28;20929;-62
2023/06/23 12:30:23;;;;;;;6.20;2.97;;;27.80;1.00;;;;;;5093588;28;20454;-60